Time;durP1;ratioP1;P1;durP2;ratioP2;P2;SDS_P1;SDS_P2;PMS_P1;PMS_P2;Temp;Humidity;BMP_temperature;BMP_pressure;BME280_temperature;BME280_humidity;BME280_pressure;Samples;Min_cycle;Max_cycle;Signal;HPM_P1;HPM_P2
2021/07/31 00:01:01;;;;;;;12.30;11.13;;;17.90;99.90;;;;;;5056317;28;20729;-37
2021/07/31 00:03:26;;;;;;;11.80;10.60;;;17.80;99.90;;;;;;5056579;28;20173;-37
2021/07/31 00:05:53;;;;;;;13.07;11.70;;;17.70;99.90;;;;;;5056773;28;20409;-36
2021/07/31 00:08:18;;;;;;;14.07;12.07;;;17.70;99.90;;;;;;5056816;28;20336;-37
2021/07/31 00:10:44;;;;;;;15.03;13.43;;;17.70;99.90;;;;;;5056781;28;20815;-37
2021/07/31 00:13:10;;;;;;;12.33;11.10;;;17.70;99.90;;;;;;5056437;28;20205;-37
2021/07/31 00:15:35;;;;;;;13.10;11.00;;;17.70;99.90;;;;;;5038296;28;20829;-38
2021/07/31 00:18:01;;;;;;;11.80;10.70;;;17.80;99.90;;;;;;5057103;28;20177;-37
2021/07/31 00:20:27;;;;;;;12.23;11.03;;;17.80;99.90;;;;;;5056676;28;20185;-36
2021/07/31 00:22:53;;;;;;;11.60;10.60;;;17.90;99.90;;;;;;5056595;28;20271;-36
2021/07/31 00:25:19;;;;;;;13.53;9.97;;;18.00;99.90;;;;;;5054954;28;20470;-37
2021/07/31 00:27:44;;;;;;;12.50;10.70;;;18.00;99.90;;;;;;5055161;28;20454;-37
2021/07/31 00:30:10;;;;;;;13.30;10.63;;;18.00;99.90;;;;;;5054629;28;20472;-37
2021/07/31 00:32:36;;;;;;;11.70;9.83;;;18.10;99.90;;;;;;5036932;28;20460;-38
2021/07/31 00:35:02;;;;;;;12.03;10.73;;;18.00;99.90;;;;;;5054342;28;20788;-37
2021/07/31 00:37:27;;;;;;;10.57;9.40;;;18.10;99.90;;;;;;5055168;28;20177;-36
2021/07/31 00:39:53;;;;;;;10.33;9.33;;;18.10;99.90;;;;;;5055700;28;20420;-36
2021/07/31 00:42:19;;;;;;;11.27;9.87;;;18.10;99.90;;;;;;5055924;28;20173;-38
2021/07/31 00:44:45;;;;;;;12.17;10.97;;;18.10;99.90;;;;;;5055793;28;20241;-37
2021/07/31 00:47:11;;;;;;;11.27;9.40;;;18.10;99.90;;;;;;5055930;28;20192;-42
2021/07/31 00:49:37;;;;;;;15.63;10.30;;;18.10;99.90;;;;;;5054898;28;20520;-36
2021/07/31 00:52:04;;;;;;;10.00;8.97;;;18.00;99.90;;;;;;5055849;28;20444;-37
2021/07/31 00:54:30;;;;;;;10.23;9.27;;;18.10;99.90;;;;;;5056892;28;20416;-37
2021/07/31 00:56:56;;;;;;;10.40;9.30;;;18.10;99.90;;;;;;5038565;28;20420;-36
2021/07/31 00:59:22;;;;;;;9.63;8.73;;;18.20;99.90;;;;;;5038353;28;20432;-37
2021/07/31 01:01:48;;;;;;;11.70;10.43;;;18.20;99.90;;;;;;5038392;28;20424;-37
2021/07/31 01:04:14;;;;;;;10.47;9.47;;;18.20;99.90;;;;;;5056601;28;20249;-38
2021/07/31 01:06:40;;;;;;;9.33;8.43;;;18.20;99.90;;;;;;5056579;28;20424;-37
2021/07/31 01:09:05;;;;;;;11.50;9.73;;;18.30;99.90;;;;;;5056641;28;20323;-38
2021/07/31 01:11:32;;;;;;;10.20;8.80;;;18.20;99.90;;;;;;5038936;28;20476;-38
2021/07/31 01:13:58;;;;;;;9.20;8.30;;;18.30;99.90;;;;;;5038565;28;20424;-37
2021/07/31 01:16:23;;;;;;;9.10;8.30;;;18.20;99.90;;;;;;5056193;28;20424;-37
2021/07/31 01:18:49;;;;;;;8.30;7.07;;;18.10;99.90;;;;;;5056294;28;20542;-37
2021/07/31 01:21:35;;;;;;;6.27;5.67;;;17.90;99.90;;;;;;5057275;28;20586;-37
2021/07/31 01:24:00;;;;;;;7.67;6.50;;;17.70;99.90;;;;;;5056072;28;20631;-37
2021/07/31 01:26:27;;;;;;;6.80;6.10;;;17.70;99.90;;;;;;5056593;28;20499;-38
2021/07/31 01:28:53;;;;;;;9.30;6.30;;;17.70;99.90;;;;;;5038736;28;20188;-36
2021/07/31 01:31:19;;;;;;;8.40;6.20;;;17.70;99.90;;;;;;5055387;28;20408;-37
2021/07/31 01:33:44;;;;;;;6.47;5.87;;;17.70;99.90;;;;;;5054720;28;20427;-37
2021/07/31 01:36:10;;;;;;;6.77;5.43;;;17.70;99.90;;;;;;5055180;28;20492;-38
2021/07/31 01:38:39;;;;;;;5.73;5.03;;;17.70;99.90;;;;;;5054166;28;20279;-37
2021/07/31 01:41:05;;;;;;;6.43;5.37;;;17.70;99.90;;;;;;5054245;28;20521;-37
2021/07/31 01:43:30;;;;;;;5.57;5.07;;;17.70;99.90;;;;;;5053996;28;20423;-37
2021/07/31 01:45:56;;;;;;;5.60;5.10;;;17.70;99.90;;;;;;5055747;28;20239;-37
2021/07/31 01:48:22;;;;;;;6.00;5.40;;;17.70;99.90;;;;;;5057356;28;20181;-37
2021/07/31 01:50:47;;;;;;;6.47;4.93;;;17.70;99.90;;;;;;5059277;28;20427;-39
2021/07/31 01:53:13;;;;;;;7.37;5.50;;;17.70;99.90;;;;;;5059229;28;20185;-37
2021/07/31 01:55:39;;;;;;;6.67;5.20;;;17.70;99.90;;;;;;5060609;28;20587;-38
2021/07/31 01:58:04;;;;;;;6.30;4.80;;;17.60;99.90;;;;;;5060226;28;20182;-36
2021/07/31 02:00:30;;;;;;;8.47;5.43;;;17.60;99.90;;;;;;5060510;28;20818;-36
2021/07/31 02:02:56;;;;;;;8.00;5.20;;;17.50;99.90;;;;;;5059247;28;20583;-37
2021/07/31 02:05:22;;;;;;;5.10;4.60;;;17.40;99.90;;;;;;5059859;28;20245;-37
2021/07/31 02:07:47;;;;;;;7.40;4.20;;;17.40;99.90;;;;;;5059973;28;20181;-37
2021/07/31 02:10:14;;;;;;;6.27;4.33;;;17.30;99.90;;;;;;5042616;28;20460;-36
2021/07/31 02:12:39;;;;;;;6.13;4.70;;;17.30;99.90;;;;;;5041674;28;20190;-37
2021/07/31 02:15:06;;;;;;;5.03;4.10;;;17.30;99.90;;;;;;5059327;28;20859;-36
2021/07/31 02:17:32;;;;;;;4.23;3.83;;;17.20;99.90;;;;;;5059438;28;20267;-37
2021/07/31 02:19:58;;;;;;;5.80;4.30;;;17.10;99.90;;;;;;5059607;28;20416;-37
2021/07/31 02:22:23;;;;;;;6.80;4.10;;;17.10;99.90;;;;;;5059555;28;20434;-37
2021/07/31 02:24:49;;;;;;;4.83;3.60;;;17.10;99.90;;;;;;5059003;28;20542;-37
2021/07/31 02:27:15;;;;;;;5.30;3.90;;;17.00;99.90;;;;;;5059221;28;20211;-36
2021/07/31 02:29:40;;;;;;;7.90;4.33;;;17.00;99.90;;;;;;5072726;28;20174;-37
2021/07/31 02:32:07;;;;;;;6.70;3.80;;;17.00;99.90;;;;;;5079171;28;20228;-37
2021/07/31 02:34:33;;;;;;;7.03;3.60;;;17.00;99.90;;;;;;5079227;28;20181;-36
2021/07/31 02:36:59;;;;;;;5.13;3.40;;;17.00;99.90;;;;;;5061731;28;20453;-35
2021/07/31 02:39:24;;;;;;;7.10;4.73;;;16.90;99.90;;;;;;5078811;28;20273;-37
2021/07/31 02:41:50;;;;;;;4.50;3.70;;;16.90;99.90;;;;;;5079087;28;20457;-36
2021/07/31 02:44:16;;;;;;;4.80;4.30;;;16.90;99.90;;;;;;5078769;28;20503;-37
2021/07/31 02:46:41;;;;;;;4.13;3.73;;;16.90;99.90;;;;;;5078984;28;20478;-35
2021/07/31 02:49:07;;;;;;;5.57;3.97;;;16.90;99.90;;;;;;5079103;28;20183;-37
2021/07/31 02:51:33;;;;;;;5.53;3.60;;;16.90;99.90;;;;;;5068727;28;20540;-36
2021/07/31 02:53:58;;;;;;;5.73;3.77;;;16.90;99.90;;;;;;5058907;28;20174;-38
2021/07/31 02:56:24;;;;;;;4.60;3.47;;;16.90;99.90;;;;;;5040246;28;20464;-37
2021/07/31 02:58:50;;;;;;;5.53;3.93;;;16.90;99.90;;;;;;5058451;28;20185;-37
2021/07/31 03:01:16;;;;;;;4.80;3.60;;;16.80;99.90;;;;;;5058907;28;20666;-37
2021/07/31 03:03:42;;;;;;;3.90;3.50;;;16.70;99.90;;;;;;5058674;28;20424;-36
2021/07/31 03:06:07;;;;;;;5.53;4.10;;;16.70;99.90;;;;;;5058779;28;20553;-37
2021/07/31 03:08:33;;;;;;;5.90;3.67;;;16.70;99.90;;;;;;5058945;28;20182;-38
2021/07/31 03:11:01;;;;;;;5.10;3.73;;;16.70;99.90;;;;;;5058899;28;20269;-36
2021/07/31 03:13:27;;;;;;;5.37;3.60;;;16.70;99.90;;;;;;5059045;28;20821;-38
2021/07/31 03:15:53;;;;;;;6.47;4.17;;;16.80;99.90;;;;;;5058699;28;20687;-37
2021/07/31 03:18:20;;;;;;;6.07;3.37;;;16.80;99.90;;;;;;5058042;28;20185;-37
2021/07/31 03:20:47;;;;;;;4.23;3.83;;;16.80;99.90;;;;;;5058589;28;20432;-36
2021/07/31 03:23:17;;;;;;;4.13;3.20;;;16.90;99.90;;;;;;5058332;28;20468;-37
2021/07/31 03:25:43;;;;;;;4.30;3.17;;;16.90;99.90;;;;;;5040275;28;20464;-36
2021/07/31 03:28:09;;;;;;;4.90;3.20;;;16.80;99.90;;;;;;5040427;28;20432;-37
2021/07/31 03:30:45;;;;;;;4.07;2.87;;;16.80;99.90;;;;;;5058366;28;20605;-37
2021/07/31 03:33:12;;;;;;;5.50;2.73;;;16.70;99.90;;;;;;5058455;28;20427;-38
2021/07/31 03:35:39;;;;;;;6.13;2.90;;;16.60;99.30;;;;;;5058399;28;20949;-37
2021/07/31 03:38:05;;;;;;;7.87;2.70;;;16.50;99.50;;;;;;5057936;28;20465;-37
2021/07/31 03:40:31;;;;;;;5.67;3.20;;;16.40;99.20;;;;;;5058115;28;20456;-37
2021/07/31 03:42:57;;;;;;;5.67;3.60;;;16.40;99.30;;;;;;5057105;28;20181;-37
2021/07/31 03:45:23;;;;;;;3.43;2.60;;;16.40;98.50;;;;;;5023889;28;20217;-36
2021/07/31 03:47:48;;;;;;;4.73;2.77;;;16.30;98.60;;;;;;5040622;28;20487;-37
2021/07/31 03:50:14;;;;;;;3.33;2.70;;;16.30;99.00;;;;;;5070979;28;20435;-37
2021/07/31 03:52:40;;;;;;;4.47;2.73;;;16.30;98.40;;;;;;5060604;28;20177;-37
2021/07/31 03:55:06;;;;;;;5.53;2.33;;;16.30;98.20;;;;;;5042657;28;20185;-37
2021/07/31 03:57:33;;;;;;;2.73;2.40;;;16.30;97.90;;;;;;5057819;28;20186;-37
2021/07/31 03:59:59;;;;;;;4.53;2.83;;;16.20;98.70;;;;;;5056887;28;20412;-37
2021/07/31 04:02:24;;;;;;;3.97;2.43;;;16.20;98.30;;;;;;5040202;28;20502;-38
2021/07/31 04:04:50;;;;;;;4.90;2.80;;;16.20;98.30;;;;;;5040249;28;20459;-38
2021/07/31 04:07:17;;;;;;;9.67;2.43;;;16.20;98.60;;;;;;5057778;28;20170;-37
2021/07/31 04:09:43;;;;;;;5.03;2.70;;;16.20;98.80;;;;;;5058175;28;20401;-38
2021/07/31 04:12:09;;;;;;;3.93;2.77;;;16.20;99.60;;;;;;5058075;28;20419;-38
2021/07/31 04:14:35;;;;;;;4.77;2.90;;;16.30;99.80;;;;;;5057380;28;20495;-38
2021/07/31 04:17:01;;;;;;;4.90;3.07;;;16.40;99.90;;;;;;5057845;28;20181;-36
2021/07/31 04:19:27;;;;;;;4.30;3.03;;;16.40;99.80;;;;;;5040951;28;20518;-37
2021/07/31 04:21:58;;;;;;;4.50;2.90;;;16.50;99.00;;;;;;5058385;28;20550;-37
2021/07/31 04:24:25;;;;;;;2.87;2.57;;;16.50;98.40;;;;;;5058149;28;20611;-37
2021/07/31 04:26:52;;;;;;;4.13;2.50;;;16.50;98.80;;;;;;5040296;28;20408;-38
2021/07/31 04:29:18;;;;;;;4.00;2.20;;;16.60;99.10;;;;;;5057367;28;20431;-37
2021/07/31 04:31:44;;;;;;;3.67;1.93;;;16.60;99.50;;;;;;5058482;28;20408;-38
2021/07/31 04:34:10;;;;;;;4.87;3.73;;;16.60;99.50;;;;;;5058383;28;20424;-37
2021/07/31 04:36:36;;;;;;;4.13;2.73;;;16.60;98.70;;;;;;5040105;28;20431;-37
2021/07/31 04:39:03;;;;;;;5.10;2.40;;;16.70;99.00;;;;;;5057870;28;20427;-37
2021/07/31 04:41:29;;;;;;;3.57;2.83;;;16.70;99.50;;;;;;5057771;28;20427;-38
2021/07/31 04:43:55;;;;;;;3.80;3.40;;;16.80;99.90;;;;;;5040246;28;20885;-37
2021/07/31 04:46:20;;;;;;;5.97;2.97;;;16.80;99.90;;;;;;5057935;28;20682;-37
2021/07/31 04:48:46;;;;;;;4.20;2.60;;;16.90;99.90;;;;;;5057418;28;20433;-38
2021/07/31 04:51:13;;;;;;;4.03;2.80;;;16.90;99.90;;;;;;5057688;28;20170;-37
2021/07/31 04:53:39;;;;;;;3.60;2.40;;;16.90;99.50;;;;;;5057520;28;20209;-38
2021/07/31 04:56:04;;;;;;;5.40;2.77;;;17.00;99.90;;;;;;5057356;28;20451;-37
2021/07/31 04:58:30;;;;;;;3.30;2.87;;;17.10;99.90;;;;;;5057796;28;20834;-37
2021/07/31 05:00:59;;;;;;;4.67;3.00;;;17.20;99.90;;;;;;5057354;28;20204;-37
2021/07/31 05:03:25;;;;;;;2.93;2.63;;;17.30;99.90;;;;;;5057081;28;20281;-37
2021/07/31 05:05:51;;;;;;;6.30;2.60;;;17.30;98.40;;;;;;5055655;28;20719;-37
2021/07/31 05:08:17;;;;;;;3.70;2.50;;;17.30;98.30;;;;;;5056459;28;20502;-37
2021/07/31 05:10:45;;;;;;;2.87;2.40;;;17.30;98.10;;;;;;5056938;28;20250;-38
2021/07/31 05:13:11;;;;;;;4.70;2.93;;;17.30;98.30;;;;;;5057354;28;20428;-37
2021/07/31 05:15:37;;;;;;;3.77;2.63;;;17.40;98.60;;;;;;5040008;28;20427;-37
2021/07/31 05:18:04;;;;;;;8.13;2.87;;;17.40;98.30;;;;;;5057318;28;20435;-38
2021/07/31 05:20:31;;;;;;;3.20;2.43;;;17.50;98.00;;;;;;5039678;28;20428;-38
2021/07/31 05:22:57;;;;;;;7.97;3.30;;;17.60;98.60;;;;;;5041471;28;20440;-37
2021/07/31 05:25:22;;;;;;;4.20;3.00;;;17.60;98.30;;;;;;5060533;28;20459;-39
2021/07/31 05:27:48;;;;;;;2.90;2.40;;;17.60;98.80;;;;;;5060927;28;20174;-37
2021/07/31 05:30:14;;;;;;;3.73;2.57;;;17.70;99.20;;;;;;5060872;28;20528;-38
2021/07/31 05:32:40;;;;;;;5.30;3.23;;;17.80;99.00;;;;;;5060802;28;20170;-37
2021/07/31 05:35:06;;;;;;;5.40;3.40;;;17.90;98.10;;;;;;5061126;28;20430;-37
2021/07/31 05:37:32;;;;;;;3.57;2.53;;;17.90;97.60;;;;;;5061013;28;20190;-38
2021/07/31 05:40:03;;;;;;;3.33;3.03;;;18.00;97.70;;;;;;5060663;28;20416;-37
2021/07/31 05:42:29;;;;;;;4.60;3.27;;;18.00;97.60;;;;;;5060832;28;20428;-37
2021/07/31 05:45:05;;;;;;;4.73;3.03;;;18.00;97.40;;;;;;5060745;28;20467;-37
2021/07/31 05:47:31;;;;;;;4.80;3.23;;;18.10;97.40;;;;;;5059597;28;20449;-37
2021/07/31 05:49:59;;;;;;;3.50;3.00;;;18.10;97.60;;;;;;5043043;28;20868;-37
2021/07/31 05:52:26;;;;;;;5.53;3.57;;;18.10;97.50;;;;;;5060912;28;20428;-38
2021/07/31 05:54:52;;;;;;;10.20;4.03;;;18.10;97.40;;;;;;5042860;28;20419;-38
2021/07/31 05:57:19;;;;;;;7.77;4.00;;;18.10;97.40;;;;;;5060812;28;20416;-38
2021/07/31 05:59:45;;;;;;;5.03;3.33;;;18.20;97.60;;;;;;5060969;28;20408;-37
2021/07/31 06:02:11;;;;;;;7.87;4.00;;;18.20;97.30;;;;;;5043200;28;20412;-38
2021/07/31 06:04:37;;;;;;;6.20;3.13;;;18.20;96.70;;;;;;5042270;28;20471;-38
2021/07/31 06:07:06;;;;;;;4.20;3.50;;;17.90;97.00;;;;;;5059731;28;20162;-36
2021/07/31 06:09:34;;;;;;;3.87;2.63;;;18.10;97.50;;;;;;5060388;28;20415;-38
2021/07/31 06:12:00;;;;;;;3.73;2.80;;;18.10;96.70;;;;;;5059810;28;20420;-37
2021/07/31 06:14:25;;;;;;;4.80;3.03;;;18.30;96.70;;;;;;5059295;28;20432;-37
2021/07/31 06:16:51;;;;;;;3.40;2.50;;;18.00;95.60;;;;;;5060829;28;20567;-41
2021/07/31 06:19:17;;;;;;;3.83;2.50;;;17.90;95.60;;;;;;5059747;28;20197;-38
2021/07/31 06:21:42;;;;;;;5.67;3.33;;;17.90;96.60;;;;;;5059722;28;20186;-39
2021/07/31 06:24:08;;;;;;;4.60;3.53;;;18.20;96.70;;;;;;5058952;28;20583;-38
2021/07/31 06:26:35;;;;;;;4.07;2.50;;;18.30;96.20;;;;;;5041670;28;20188;-38
2021/07/31 06:29:01;;;;;;;6.23;3.10;;;18.30;96.00;;;;;;5058655;28;20188;-38
2021/07/31 06:31:26;;;;;;;4.40;3.50;;;18.40;95.90;;;;;;5058400;28;20408;-38
2021/07/31 06:33:52;;;;;;;7.43;3.37;;;18.50;96.20;;;;;;5058422;28;20432;-38
2021/07/31 06:36:21;;;;;;;9.30;3.37;;;18.70;96.40;;;;;;5042286;28;20208;-38
2021/07/31 06:38:47;;;;;;;6.37;3.40;;;18.70;96.10;;;;;;5059270;28;20186;-37
2021/07/31 06:41:13;;;;;;;5.93;3.23;;;18.80;96.10;;;;;;5041074;28;20424;-37
2021/07/31 06:43:38;;;;;;;6.13;3.57;;;18.70;95.80;;;;;;5058421;28;20424;-38
2021/07/31 06:46:15;;;;;;;6.90;3.90;;;18.80;95.70;;;;;;5058361;28;20170;-39
2021/07/31 06:48:41;;;;;;;5.47;3.00;;;18.70;95.30;;;;;;5058072;28;20302;-37
2021/07/31 06:51:08;;;;;;;6.57;3.40;;;18.70;96.00;;;;;;5057856;28;20424;-39
2021/07/31 06:53:34;;;;;;;5.10;3.20;;;18.80;95.60;;;;;;5058532;28;20454;-38
2021/07/31 06:56:00;;;;;;;4.80;2.77;;;18.90;94.60;;;;;;5041265;28;20413;-37
2021/07/31 06:58:26;;;;;;;4.70;2.97;;;18.90;93.60;;;;;;5041306;28;20255;-40
2021/07/31 07:00:52;;;;;;;7.20;3.40;;;18.70;93.80;;;;;;5056661;28;20416;-38
2021/07/31 07:03:18;;;;;;;5.53;2.77;;;18.90;94.40;;;;;;5057463;28;20186;-37
2021/07/31 07:05:44;;;;;;;3.50;2.63;;;19.00;94.30;;;;;;5058901;28;20208;-39
2021/07/31 07:08:09;;;;;;;4.90;2.97;;;19.40;94.10;;;;;;5040373;28;20197;-37
2021/07/31 07:10:35;;;;;;;4.33;2.33;;;19.60;94.40;;;;;;5040541;28;20522;-37
2021/07/31 07:13:01;;;;;;;5.70;3.10;;;19.30;93.30;;;;;;5057642;28;20181;-37
2021/07/31 07:15:28;;;;;;;4.57;2.97;;;19.60;92.70;;;;;;5058757;28;20169;-38
2021/07/31 07:17:57;;;;;;;3.80;2.80;;;19.40;93.20;;;;;;5056695;28;20223;-37
2021/07/31 07:20:25;;;;;;;3.93;2.90;;;19.70;93.30;;;;;;5057834;28;20488;-38
2021/07/31 07:22:51;;;;;;;7.17;2.63;;;19.50;94.00;;;;;;5057454;28;20837;-40
2021/07/31 07:25:17;;;;;;;5.60;2.70;;;19.80;93.20;;;;;;5040204;28;20471;-38
2021/07/31 07:27:42;;;;;;;5.27;2.70;;;19.70;91.90;;;;;;5058947;28;20428;-39
2021/07/31 07:30:09;;;;;;;6.70;2.50;;;19.60;91.60;;;;;;5057710;28;20528;-38
2021/07/31 07:32:35;;;;;;;8.37;2.83;;;19.70;92.20;;;;;;5058241;28;20333;-38
2021/07/31 07:35:01;;;;;;;3.70;2.30;;;19.70;91.60;;;;;;5058998;28;20486;-38
2021/07/31 07:37:26;;;;;;;5.73;2.50;;;19.40;91.30;;;;;;5057571;28;20675;-37
2021/07/31 07:39:52;;;;;;;8.10;2.63;;;19.80;90.90;;;;;;5058001;28;20420;-39
2021/07/31 07:42:18;;;;;;;12.03;2.90;;;19.90;90.30;;;;;;5058768;28;20184;-38
2021/07/31 07:44:44;;;;;;;4.80;2.00;;;20.20;90.70;;;;;;5057710;28;20241;-36
2021/07/31 07:47:10;;;;;;;6.83;2.40;;;20.20;91.00;;;;;;5056674;28;20440;-39
2021/07/31 07:49:36;;;;;;;6.83;3.17;;;20.70;89.30;;;;;;5057870;28;20174;-37
2021/07/31 07:52:02;;;;;;;3.47;2.20;;;20.80;89.00;;;;;;5056098;28;20511;-38
2021/07/31 07:54:31;;;;;;;4.63;2.50;;;20.70;88.60;;;;;;5057040;28;20431;-37
2021/07/31 07:56:57;;;;;;;4.40;3.13;;;20.20;86.80;;;;;;5056547;28;20423;-37
2021/07/31 07:59:23;;;;;;;5.17;2.40;;;20.60;86.50;;;;;;5056843;28;20451;-39
2021/07/31 08:01:49;;;;;;;5.10;2.17;;;20.40;85.70;;;;;;5058056;28;20459;-39
2021/07/31 08:04:15;;;;;;;3.37;2.40;;;19.90;85.90;;;;;;5056947;28;20224;-37
2021/07/31 08:06:40;;;;;;;4.63;2.20;;;20.10;87.80;;;;;;5056373;28;20412;-37
2021/07/31 08:09:06;;;;;;;5.10;2.40;;;19.70;88.10;;;;;;5057328;28;20424;-36
2021/07/31 08:11:32;;;;;;;4.57;2.20;;;19.80;88.20;;;;;;5055842;28;20218;-38
2021/07/31 08:13:59;;;;;;;4.53;2.57;;;19.90;87.80;;;;;;5056206;28;20185;-38
2021/07/31 08:16:24;;;;;;;3.50;2.50;;;20.30;87.90;;;;;;5056938;28;20668;-39
2021/07/31 08:18:50;;;;;;;4.80;2.37;;;20.50;87.00;;;;;;5054954;28;20451;-37
2021/07/31 08:21:16;;;;;;;4.00;2.20;;;20.30;87.10;;;;;;5055547;28;20451;-38
2021/07/31 08:23:43;;;;;;;3.20;2.23;;;20.40;87.60;;;;;;5051877;28;20673;-38
2021/07/31 08:26:12;;;;;;;6.53;2.30;;;20.90;86.90;;;;;;5092228;28;20484;-40
2021/07/31 08:28:42;;;;;;;4.53;2.33;;;20.70;85.40;;;;;;5096131;28;20445;-38
2021/07/31 08:31:12;;;;;;;3.80;1.93;;;20.60;85.50;;;;;;5098277;28;20804;-38
2021/07/31 08:33:37;;;;;;;7.00;3.00;;;20.80;85.00;;;;;;5096715;28;20776;-38
2021/07/31 08:36:04;;;;;;;6.53;2.37;;;21.00;84.90;;;;;;5096898;28;20468;-38
2021/07/31 08:38:30;;;;;;;5.40;2.47;;;21.50;85.30;;;;;;5096220;28;20562;-37
2021/07/31 08:40:57;;;;;;;6.90;2.50;;;21.10;84.10;;;;;;5095828;28;20718;-40
2021/07/31 08:43:23;;;;;;;3.30;2.73;;;21.40;84.40;;;;;;5098966;28;20898;-38
2021/07/31 08:45:50;;;;;;;7.10;2.20;;;20.90;82.90;;;;;;5097227;28;20492;-38
2021/07/31 08:48:18;;;;;;;4.03;2.33;;;20.80;83.90;;;;;;5096819;28;20442;-37
2021/07/31 08:50:45;;;;;;;4.03;2.23;;;20.30;84.50;;;;;;5097217;28;20509;-37
2021/07/31 08:53:10;;;;;;;4.10;2.50;;;20.40;85.70;;;;;;5093157;28;20477;-38
2021/07/31 08:55:36;;;;;;;3.20;2.20;;;21.00;86.40;;;;;;5093292;28;20487;-37
2021/07/31 08:58:03;;;;;;;5.13;2.20;;;21.30;83.40;;;;;;5099311;28;20253;-38
2021/07/31 09:00:29;;;;;;;3.30;2.10;;;21.30;81.90;;;;;;5100462;28;20554;-36
2021/07/31 09:02:55;;;;;;;3.87;2.27;;;21.50;80.50;;;;;;5099382;28;20449;-37
2021/07/31 09:05:34;;;;;;;4.30;2.70;;;21.50;80.40;;;;;;5099377;28;20465;-37
2021/07/31 09:08:01;;;;;;;2.63;1.90;;;21.90;80.70;;;;;;5098208;28;20237;-38
2021/07/31 09:10:28;;;;;;;5.00;2.40;;;21.90;80.30;;;;;;5099515;28;20497;-39
2021/07/31 09:12:54;;;;;;;6.50;2.47;;;22.20;78.60;;;;;;5098475;28;20426;-38
2021/07/31 09:15:38;;;;;;;2.57;1.77;;;22.10;76.70;;;;;;5098008;28;20421;-38
2021/07/31 09:18:29;;;;;;;3.90;1.90;;;22.30;76.50;;;;;;5099386;28;20260;-37
2021/07/31 09:21:12;;;;;;;4.40;2.00;;;22.10;77.10;;;;;;5099413;28;20876;-37
2021/07/31 09:23:53;;;;;;;3.43;2.23;;;21.80;76.40;;;;;;5096878;28;20478;-37
2021/07/31 09:26:23;;;;;;;4.57;2.10;;;21.70;76.20;;;;;;5098178;28;20418;-36
2021/07/31 09:29:02;;;;;;;3.40;2.17;;;21.30;76.20;;;;;;5099279;28;20418;-38
2021/07/31 09:31:28;;;;;;;5.70;1.80;;;21.40;78.10;;;;;;5099539;28;20402;-36
2021/07/31 09:33:57;;;;;;;3.80;2.00;;;21.40;76.20;;;;;;5099757;28;20457;-37
2021/07/31 09:36:22;;;;;;;4.20;2.20;;;22.10;74.70;;;;;;5100173;28;20429;-37
2021/07/31 09:38:49;;;;;;;3.37;1.97;;;22.30;73.40;;;;;;5099240;28;20461;-37
2021/07/31 09:41:39;;;;;;;2.70;2.07;;;22.50;73.20;;;;;;5098580;28;20181;-36
2021/07/31 09:44:06;;;;;;;3.93;2.23;;;22.50;71.40;;;;;;5098437;28;20474;-37
2021/07/31 09:46:46;;;;;;;4.40;1.60;;;22.60;69.90;;;;;;5100060;28;20448;-36
2021/07/31 09:49:16;;;;;;;5.83;1.53;;;22.30;69.70;;;;;;5099410;28;20516;-36
2021/07/31 09:51:47;;;;;;;3.03;1.50;;;22.60;70.20;;;;;;5099508;28;20418;-36
2021/07/31 09:54:15;;;;;;;2.43;1.60;;;22.70;67.10;;;;;;5099200;28;20649;-36
2021/07/31 09:56:54;;;;;;;4.70;2.00;;;23.00;67.90;;;;;;5096902;28;20514;-36
2021/07/31 09:59:21;;;;;;;3.73;1.80;;;23.10;67.40;;;;;;5099840;28;20426;-35
2021/07/31 10:01:56;;;;;;;2.87;1.80;;;23.00;67.60;;;;;;5100754;28;20517;-37
2021/07/31 10:04:22;;;;;;;2.17;1.90;;;23.40;69.00;;;;;;5099495;28;20495;-36
2021/07/31 10:06:49;;;;;;;5.07;2.60;;;23.30;68.10;;;;;;5100419;28;20820;-36
2021/07/31 10:09:15;;;;;;;3.83;2.03;;;23.20;67.10;;;;;;5098130;28;20234;-36
2021/07/31 10:11:43;;;;;;;3.40;1.90;;;23.30;65.10;;;;;;5097425;28;20434;-36
2021/07/31 10:14:09;;;;;;;3.00;1.87;;;23.10;66.30;;;;;;5097928;28;20503;-36
2021/07/31 10:16:37;;;;;;;2.60;2.30;;;23.50;65.00;;;;;;5099781;28;20438;-37
2021/07/31 10:19:06;;;;;;;4.17;2.20;;;23.50;64.00;;;;;;5098543;28;20522;-37
2021/07/31 10:22:00;;;;;;;2.93;2.00;;;23.30;66.20;;;;;;5096860;28;20503;-36
2021/07/31 10:24:30;;;;;;;3.57;2.03;;;23.20;66.30;;;;;;5081836;28;20521;-37
2021/07/31 10:27:17;;;;;;;4.47;2.70;;;23.80;65.40;;;;;;5078059;28;20481;-37
2021/07/31 10:29:47;;;;;;;3.30;2.37;;;24.90;64.70;;;;;;5076909;28;20421;-37
2021/07/31 10:32:19;;;;;;;3.13;1.80;;;24.10;61.60;;;;;;5076760;28;20403;-37
2021/07/31 10:34:48;;;;;;;3.03;1.83;;;24.30;62.00;;;;;;5077241;28;20403;-37
2021/07/31 10:37:40;;;;;;;3.23;1.63;;;24.10;62.10;;;;;;5059432;28;20427;-37
2021/07/31 10:40:08;;;;;;;4.23;2.13;;;23.50;62.70;;;;;;5055629;28;20534;-37
2021/07/31 10:42:52;;;;;;;4.57;1.93;;;24.40;63.70;;;;;;5078726;28;20518;-45
2021/07/31 10:45:18;;;;;;;3.23;2.20;;;24.40;62.10;;;;;;5078461;28;20872;-42
2021/07/31 10:47:51;;;;;;;5.27;1.90;;;24.20;59.90;;;;;;5079208;28;20431;-38
2021/07/31 10:50:22;;;;;;;5.90;2.10;;;25.00;59.40;;;;;;5078487;28;20494;-40
2021/07/31 10:53:02;;;;;;;2.53;1.80;;;24.50;59.20;;;;;;5078866;28;20885;-38
2021/07/31 10:55:37;;;;;;;4.30;2.23;;;24.20;60.40;;;;;;5078852;28;20674;-37
2021/07/31 10:58:06;;;;;;;3.40;2.07;;;25.20;61.30;;;;;;5079471;28;20511;-43
2021/07/31 11:00:40;;;;;;;5.50;2.00;;;25.10;59.50;;;;;;5060206;28;20732;-39
2021/07/31 11:03:28;;;;;;;2.70;1.87;;;24.80;59.70;;;;;;5078395;28;20427;-37
2021/07/31 11:05:54;;;;;;;4.30;2.43;;;25.60;58.10;;;;;;5076026;28;20899;-38
2021/07/31 11:08:21;;;;;;;2.93;2.03;;;25.70;58.50;;;;;;5074958;28;20427;-38
2021/07/31 11:10:49;;;;;;;3.47;2.70;;;25.80;57.70;;;;;;5077667;28;20801;-38
2021/07/31 11:13:17;;;;;;;3.10;1.90;;;25.90;56.60;;;;;;5076011;28;20430;-38
2021/07/31 11:15:58;;;;;;;2.27;2.07;;;26.00;57.30;;;;;;5076977;28;20393;-39
2021/07/31 11:18:40;;;;;;;3.40;2.00;;;24.80;59.20;;;;;;5082438;28;20446;-39
2021/07/31 11:21:22;;;;;;;2.37;2.17;;;25.10;60.10;;;;;;5078149;28;20692;-39
2021/07/31 11:23:48;;;;;;;3.30;2.20;;;25.70;56.80;;;;;;5066807;28;20495;-38
2021/07/31 11:26:36;;;;;;;2.80;1.97;;;25.30;57.40;;;;;;5071655;28;21063;-40
2021/07/31 11:29:10;;;;;;;3.00;2.40;;;25.10;57.90;;;;;;5075329;28;20169;-39
2021/07/31 11:31:38;;;;;;;3.83;2.17;;;25.80;58.20;;;;;;5077020;28;20407;-38
2021/07/31 11:34:08;;;;;;;4.43;2.50;;;25.70;55.70;;;;;;5076832;28;20442;-38
2021/07/31 11:36:35;;;;;;;2.87;1.90;;;26.00;55.30;;;;;;5058946;28;20443;-39
2021/07/31 11:39:02;;;;;;;3.00;1.93;;;25.90;56.70;;;;;;5077713;28;20417;-38
2021/07/31 11:41:28;;;;;;;2.60;1.77;;;25.80;55.70;;;;;;5056929;28;20428;-37
2021/07/31 11:43:59;;;;;;;5.40;2.10;;;25.20;56.50;;;;;;5075326;28;20431;-38
2021/07/31 11:46:41;;;;;;;3.40;2.10;;;25.50;56.00;;;;;;5076247;28;20415;-38
2021/07/31 11:49:26;;;;;;;2.33;1.63;;;25.70;55.40;;;;;;5077120;28;20895;-38
2021/07/31 11:51:54;;;;;;;2.60;1.80;;;26.20;53.90;;;;;;5077627;28;20469;-37
2021/07/31 11:54:20;;;;;;;2.80;1.90;;;26.30;54.80;;;;;;5077687;28;20706;-38
2021/07/31 11:56:47;;;;;;;2.10;1.90;;;26.20;53.20;;;;;;5077769;28;20411;-37
2021/07/31 11:59:24;;;;;;;4.77;2.40;;;25.50;53.10;;;;;;5059724;28;20459;-39
2021/07/31 12:01:52;;;;;;;2.50;1.70;;;25.60;53.80;;;;;;5077017;28;20417;-38
2021/07/31 12:04:44;;;;;;;3.40;2.37;;;25.50;54.00;;;;;;5077599;28;20550;-38
2021/07/31 12:07:09;;;;;;;4.03;1.83;;;25.00;54.20;;;;;;5077001;28;20403;-41
2021/07/31 12:09:35;;;;;;;3.53;2.33;;;25.10;54.50;;;;;;5075983;28;20433;-38
2021/07/31 12:12:01;;;;;;;1.90;1.60;;;25.60;54.10;;;;;;5075919;28;20165;-38
2021/07/31 12:14:31;;;;;;;2.30;1.70;;;26.20;54.00;;;;;;5075733;28;20940;-37
2021/07/31 12:17:17;;;;;;;2.40;2.07;;;27.00;52.20;;;;;;5058230;28;20204;-47
2021/07/31 12:19:44;;;;;;;3.33;1.43;;;28.50;55.50;;;;;;5075678;28;21041;-47
2021/07/31 12:22:12;;;;;;;3.03;2.03;;;28.90;50.20;;;;;;5075273;28;20443;-47
2021/07/31 12:24:37;;;;;;;1.57;1.33;;;30.00;48.00;;;;;;5075340;28;20898;-47
2021/07/31 12:27:03;;;;;;;3.97;2.30;;;30.80;47.10;;;;;;5075721;28;20419;-47
2021/07/31 12:29:40;;;;;;;2.93;2.00;;;30.60;45.90;;;;;;5076298;28;20562;-47
2021/07/31 12:32:44;;;;;;;2.40;1.83;;;30.40;45.60;;;;;;5075113;28;20711;-47
2021/07/31 12:35:38;;;;;;;3.30;2.57;;;29.50;46.00;;;;;;4975236;28;20428;-47
2021/07/31 12:38:11;;;;;;;2.93;1.83;;;29.60;46.10;;;;;;5075998;28;20408;-47
2021/07/31 12:40:38;;;;;;;2.90;1.90;;;29.40;45.90;;;;;;5076855;28;20449;-47
2021/07/31 12:43:12;;;;;;;2.23;1.80;;;29.40;45.30;;;;;;5058752;28;20431;-47
2021/07/31 12:45:43;;;;;;;3.03;1.83;;;29.30;45.70;;;;;;5075548;28;20464;-47
2021/07/31 12:48:13;;;;;;;3.80;2.13;;;29.10;45.50;;;;;;5077372;28;20493;-47
2021/07/31 12:50:39;;;;;;;5.00;2.57;;;29.10;46.00;;;;;;5077274;28;20527;-47